sensor_id;sensor_type;location;lat;lon;timestamp;pressure;altitude;pressure_sealevel;temperature;humidity
19576;BME280;41589;51.196;7.074;2023-04-25T00:03:04;98347.53;;;6.63;100.00
19576;BME280;41589;51.196;7.074;2023-04-25T00:08:06;98356.84;;;6.82;100.00
19576;BME280;41589;51.196;7.074;2023-04-25T00:13:06;98352.03;;;6.83;100.00
19576;BME280;41589;51.196;7.074;2023-04-25T00:18:08;98353.94;;;6.86;100.00
19576;BME280;41589;51.196;7.074;2023-04-25T00:23:09;98350.59;;;7.00;100.00
19576;BME280;41589;51.196;7.074;2023-04-25T00:28:11;98356.06;;;7.04;100.00
19576;BME280;41589;51.196;7.074;2023-04-25T00:33:11;98361.94;;;6.96;100.00
19576;BME280;41589;51.196;7.074;2023-04-25T00:38:12;98357.16;;;7.06;100.00
19576;BME280;41589;51.196;7.074;2023-04-25T00:43:12;98353.00;;;7.11;100.00
19576;BME280;41589;51.196;7.074;2023-04-25T00:48:13;98341.66;;;7.14;100.00
19576;BME280;41589;51.196;7.074;2023-04-25T00:53:14;98349.00;;;7.21;100.00
19576;BME280;41589;51.196;7.074;2023-04-25T00:58:15;98351.16;;;7.17;100.00
19576;BME280;41589;51.196;7.074;2023-04-25T01:03:16;98354.09;;;7.13;100.00
19576;BME280;41589;51.196;7.074;2023-04-25T01:08:17;98350.66;;;7.09;100.00
19576;BME280;41589;51.196;7.074;2023-04-25T01:13:17;98345.44;;;7.20;100.00
19576;BME280;41589;51.196;7.074;2023-04-25T01:18:22;98339.63;;;7.15;100.00
19576;BME280;41589;51.196;7.074;2023-04-25T01:23:23;98351.50;;;7.19;100.00
19576;BME280;41589;51.196;7.074;2023-04-25T01:28:24;98356.69;;;7.30;100.00
19576;BME280;41589;51.196;7.074;2023-04-25T01:33:25;98351.97;;;7.26;100.00
19576;BME280;41589;51.196;7.074;2023-04-25T01:38:25;98352.81;;;7.36;100.00
19576;BME280;41589;51.196;7.074;2023-04-25T01:43:26;98355.91;;;7.29;100.00
19576;BME280;41589;51.196;7.074;2023-04-25T01:48:26;98356.88;;;7.13;100.00
19576;BME280;41589;51.196;7.074;2023-04-25T01:53:27;98364.09;;;7.23;100.00
19576;BME280;41589;51.196;7.074;2023-04-25T01:58:28;98361.13;;;7.18;100.00
19576;BME280;41589;51.196;7.074;2023-04-25T02:03:47;98374.34;;;7.17;100.00
19576;BME280;41589;51.196;7.074;2023-04-25T02:09:06;98375.25;;;7.14;100.00
19576;BME280;41589;51.196;7.074;2023-04-25T02:14:07;98386.91;;;7.13;100.00
19576;BME280;41589;51.196;7.074;2023-04-25T02:19:23;98376.47;;;7.13;100.00
19576;BME280;41589;51.196;7.074;2023-04-25T02:24:24;98379.59;;;7.15;100.00
19576;BME280;41589;51.196;7.074;2023-04-25T02:29:24;98383.63;;;7.14;100.00
19576;BME280;41589;51.196;7.074;2023-04-25T02:34:24;98381.91;;;7.08;100.00
19576;BME280;41589;51.196;7.074;2023-04-25T02:39:25;98378.44;;;7.04;100.00
19576;BME280;41589;51.196;7.074;2023-04-25T02:44:27;98382.16;;;7.01;100.00
19576;BME280;41589;51.196;7.074;2023-04-25T02:49:27;98375.47;;;6.98;100.00
19576;BME280;41589;51.196;7.074;2023-04-25T02:54:28;98379.69;;;7.03;100.00
19576;BME280;41589;51.196;7.074;2023-04-25T02:59:29;98378.25;;;6.98;100.00
19576;BME280;41589;51.196;7.074;2023-04-25T03:04:30;98380.41;;;6.94;100.00
19576;BME280;41589;51.196;7.074;2023-04-25T03:09:30;98379.38;;;6.79;100.00
19576;BME280;41589;51.196;7.074;2023-04-25T03:14:31;98378.28;;;6.76;100.00
19576;BME280;41589;51.196;7.074;2023-04-25T03:19:32;98378.75;;;7.06;100.00
19576;BME280;41589;51.196;7.074;2023-04-25T03:24:32;98373.94;;;6.84;100.00
19576;BME280;41589;51.196;7.074;2023-04-25T03:29:33;98384.63;;;6.99;100.00
19576;BME280;41589;51.196;7.074;2023-04-25T03:34:37;98380.00;;;6.83;100.00
19576;BME280;41589;51.196;7.074;2023-04-25T03:39:39;98378.84;;;6.71;100.00
19576;BME280;41589;51.196;7.074;2023-04-25T03:44:43;98395.44;;;6.65;100.00
19576;BME280;41589;51.196;7.074;2023-04-25T03:49:44;98387.44;;;6.77;100.00
19576;BME280;41589;51.196;7.074;2023-04-25T03:54:45;98398.81;;;6.82;100.00
19576;BME280;41589;51.196;7.074;2023-04-25T03:59:49;98403.00;;;6.78;100.00
19576;BME280;41589;51.196;7.074;2023-04-25T04:04:50;98391.13;;;6.74;100.00
19576;BME280;41589;51.196;7.074;2023-04-25T04:09:51;98397.13;;;6.85;100.00
19576;BME280;41589;51.196;7.074;2023-04-25T04:15:02;98412.47;;;6.80;100.00
19576;BME280;41589;51.196;7.074;2023-04-25T04:20:04;98407.34;;;6.79;100.00
19576;BME280;41589;51.196;7.074;2023-04-25T04:25:06;98417.47;;;6.63;100.00
19576;BME280;41589;51.196;7.074;2023-04-25T04:30:30;98415.34;;;6.67;100.00
19576;BME280;41589;51.196;7.074;2023-04-25T04:35:33;98417.47;;;6.63;100.00
19576;BME280;41589;51.196;7.074;2023-04-25T04:40:34;98419.69;;;6.68;100.00
19576;BME280;41589;51.196;7.074;2023-04-25T04:45:52;98426.06;;;6.69;100.00
19576;BME280;41589;51.196;7.074;2023-04-25T04:51:06;98430.47;;;6.57;100.00
19576;BME280;41589;51.196;7.074;2023-04-25T04:56:30;98452.28;;;6.50;100.00
19576;BME280;41589;51.196;7.074;2023-04-25T05:01:52;98441.56;;;6.48;100.00
19576;BME280;41589;51.196;7.074;2023-04-25T05:07:13;98456.28;;;6.61;100.00
19576;BME280;41589;51.196;7.074;2023-04-25T05:12:32;98452.66;;;6.74;100.00
19576;BME280;41589;51.196;7.074;2023-04-25T05:17:51;98467.59;;;6.58;100.00
19576;BME280;41589;51.196;7.074;2023-04-25T05:23:14;98470.81;;;6.69;100.00
19576;BME280;41589;51.196;7.074;2023-04-25T05:28:33;98480.06;;;6.79;100.00
19576;BME280;41589;51.196;7.074;2023-04-25T05:34:03;98483.97;;;6.81;100.00
19576;BME280;41589;51.196;7.074;2023-04-25T05:39:25;98487.25;;;7.02;100.00
19576;BME280;41589;51.196;7.074;2023-04-25T05:44:42;98485.38;;;7.20;100.00
19576;BME280;41589;51.196;7.074;2023-04-25T05:50:06;98501.88;;;7.18;100.00
19576;BME280;41589;51.196;7.074;2023-04-25T05:55:42;98501.88;;;7.18;100.00
19576;BME280;41589;51.196;7.074;2023-04-25T06:00:56;98510.81;;;7.13;100.00
19576;BME280;41589;51.196;7.074;2023-04-25T06:06:03;98515.31;;;7.11;100.00
19576;BME280;41589;51.196;7.074;2023-04-25T06:11:04;98521.91;;;7.39;100.00
19576;BME280;41589;51.196;7.074;2023-04-25T06:16:05;98522.81;;;7.36;100.00
19576;BME280;41589;51.196;7.074;2023-04-25T06:21:06;98523.72;;;7.33;100.00
19576;BME280;41589;51.196;7.074;2023-04-25T06:26:07;98519.97;;;7.79;100.00
19576;BME280;41589;51.196;7.074;2023-04-25T06:31:11;98527.44;;;8.04;100.00
19576;BME280;41589;51.196;7.074;2023-04-25T06:36:14;98522.56;;;7.96;100.00
19576;BME280;41589;51.196;7.074;2023-04-25T06:41:17;98531.44;;;8.25;100.00
19576;BME280;41589;51.196;7.074;2023-04-25T06:46:18;98535.22;;;8.40;100.00
19576;BME280;41589;51.196;7.074;2023-04-25T06:51:21;98542.34;;;8.23;100.00
19576;BME280;41589;51.196;7.074;2023-04-25T06:56:23;98537.22;;;8.31;100.00
19576;BME280;41589;51.196;7.074;2023-04-25T07:01:30;98540.16;;;8.67;100.00
19576;BME280;41589;51.196;7.074;2023-04-25T07:06:35;98549.03;;;8.66;100.00
19576;BME280;41589;51.196;7.074;2023-04-25T07:11:38;98563.53;;;8.64;100.00
19576;BME280;41589;51.196;7.074;2023-04-25T07:16:41;98562.94;;;8.79;100.00
19576;BME280;41589;51.196;7.074;2023-04-25T07:21:42;98571.25;;;8.51;100.00
19576;BME280;41589;51.196;7.074;2023-04-25T07:26:43;98582.81;;;8.53;100.00
19576;BME280;41589;51.196;7.074;2023-04-25T07:32:01;98577.81;;;8.48;100.00
19576;BME280;41589;51.196;7.074;2023-04-25T07:37:03;98584.25;;;8.67;100.00
19576;BME280;41589;51.196;7.074;2023-04-25T07:42:12;98578.38;;;8.74;100.00
19576;BME280;41589;51.196;7.074;2023-04-25T07:47:16;98585.03;;;8.67;100.00
19576;BME280;41589;51.196;7.074;2023-04-25T07:52:20;98587.34;;;8.60;100.00
19576;BME280;41589;51.196;7.074;2023-04-25T07:57:29;98595.06;;;8.37;100.00
19576;BME280;41589;51.196;7.074;2023-04-25T08:02:32;98615.66;;;8.44;100.00
19576;BME280;41589;51.196;7.074;2023-04-25T08:07:32;98619.41;;;8.50;100.00
19576;BME280;41589;51.196;7.074;2023-04-25T08:12:40;98622.97;;;8.19;100.00
19576;BME280;41589;51.196;7.074;2023-04-25T08:17:41;98628.00;;;8.95;100.00
19576;BME280;41589;51.196;7.074;2023-04-25T08:22:44;98621.06;;;9.46;100.00
19576;BME280;41589;51.196;7.074;2023-04-25T08:28:07;98631.97;;;10.08;100.00
19576;BME280;41589;51.196;7.074;2023-04-25T08:33:08;98633.25;;;10.58;100.00
19576;BME280;41589;51.196;7.074;2023-04-25T08:38:22;98652.69;;;10.38;98.12
19576;BME280;41589;51.196;7.074;2023-04-25T08:43:24;98648.78;;;10.45;97.33
19576;BME280;41589;51.196;7.074;2023-04-25T08:48:27;98656.69;;;9.85;94.83
19576;BME280;41589;51.196;7.074;2023-04-25T08:53:30;98667.59;;;10.20;97.35
19576;BME280;41589;51.196;7.074;2023-04-25T08:58:33;98671.50;;;10.13;96.58
19576;BME280;41589;51.196;7.074;2023-04-25T09:03:35;98691.31;;;9.73;90.95
19576;BME280;41589;51.196;7.074;2023-04-25T09:08:38;98691.56;;;9.20;86.36
19576;BME280;41589;51.196;7.074;2023-04-25T09:13:40;98704.78;;;9.78;95.24
19576;BME280;41589;51.196;7.074;2023-04-25T09:19:07;98699.91;;;10.43;95.05
19576;BME280;41589;51.196;7.074;2023-04-25T09:29:35;98714.56;;;10.56;89.47
19576;BME280;41589;51.196;7.074;2023-04-25T09:34:41;98713.88;;;10.80;90.16
19576;BME280;41589;51.196;7.074;2023-04-25T09:39:44;98716.84;;;10.76;86.97
19576;BME280;41589;51.196;7.074;2023-04-25T09:44:54;98716.59;;;11.40;92.33
19576;BME280;41589;51.196;7.074;2023-04-25T09:49:55;98735.75;;;11.60;83.18
19576;BME280;41589;51.196;7.074;2023-04-25T09:54:56;98735.16;;;11.56;83.68
19576;BME280;41589;51.196;7.074;2023-04-25T10:00:08;98739.19;;;10.89;81.29
19576;BME280;41589;51.196;7.074;2023-04-25T10:05:15;98756.78;;;10.47;80.63
19576;BME280;41589;51.196;7.074;2023-04-25T10:10:16;98748.69;;;10.22;82.55
19576;BME280;41589;51.196;7.074;2023-04-25T10:15:17;98760.88;;;10.37;82.18
19576;BME280;41589;51.196;7.074;2023-04-25T10:20:17;98755.53;;;11.09;85.87
19576;BME280;41589;51.196;7.074;2023-04-25T10:25:19;98746.28;;;11.74;79.85
19576;BME280;41589;51.196;7.074;2023-04-25T10:30:19;98754.66;;;11.69;75.25
19576;BME280;41589;51.196;7.074;2023-04-25T10:35:29;98763.09;;;11.69;73.51
19576;BME280;41589;51.196;7.074;2023-04-25T10:40:33;98776.59;;;11.32;70.81
19576;BME280;41589;51.196;7.074;2023-04-25T10:45:51;98783.53;;;11.12;72.68
19576;BME280;41589;51.196;7.074;2023-04-25T10:51:15;98775.81;;;10.80;72.70
19576;BME280;41589;51.196;7.074;2023-04-25T10:56:20;98772.31;;;11.03;71.79
19576;BME280;41589;51.196;7.074;2023-04-25T11:01:24;98780.41;;;11.10;67.69
19576;BME280;41589;51.196;7.074;2023-04-25T11:06:42;98773.84;;;11.13;70.40
19576;BME280;41589;51.196;7.074;2023-04-25T11:11:56;98779.47;;;11.13;61.97
19576;BME280;41589;51.196;7.074;2023-04-25T11:16:58;98776.28;;;11.63;65.75
19576;BME280;41589;51.196;7.074;2023-04-25T11:22:06;98759.31;;;11.96;62.35
19576;BME280;41589;51.196;7.074;2023-04-25T11:27:08;98761.34;;;11.95;60.68
19576;BME280;41589;51.196;7.074;2023-04-25T11:32:11;98771.91;;;11.62;57.96
19576;BME280;41589;51.196;7.074;2023-04-25T11:37:11;98779.69;;;11.43;57.76
19576;BME280;41589;51.196;7.074;2023-04-25T11:42:12;98776.84;;;11.43;58.34
19576;BME280;41589;51.196;7.074;2023-04-25T11:47:13;98768.91;;;12.13;64.42
19576;BME280;41589;51.196;7.074;2023-04-25T11:52:13;98765.38;;;12.03;57.58
19576;BME280;41589;51.196;7.074;2023-04-25T11:57:14;98769.59;;;12.08;57.88
19576;BME280;41589;51.196;7.074;2023-04-25T12:02:25;98784.34;;;12.03;61.17
19576;BME280;41589;51.196;7.074;2023-04-25T12:07:29;98806.41;;;11.23;57.17
19576;BME280;41589;51.196;7.074;2023-04-25T12:12:35;98818.66;;;10.84;60.01
19576;BME280;41589;51.196;7.074;2023-04-25T12:17:38;98825.41;;;10.59;60.36
19576;BME280;41589;51.196;7.074;2023-04-25T12:22:44;98829.97;;;10.20;61.49
19576;BME280;41589;51.196;7.074;2023-04-25T12:33:02;98836.22;;;10.33;62.51
19576;BME280;41589;51.196;7.074;2023-04-25T12:38:02;98826.34;;;10.65;64.77
19576;BME280;41589;51.196;7.074;2023-04-25T12:43:03;98839.94;;;10.66;62.64
19576;BME280;41589;51.196;7.074;2023-04-25T12:48:03;98850.72;;;10.50;63.28
19576;BME280;41589;51.196;7.074;2023-04-25T12:53:04;98856.84;;;10.21;61.01
19576;BME280;41589;51.196;7.074;2023-04-25T12:58:07;98869.97;;;9.74;63.78
19576;BME280;41589;51.196;7.074;2023-04-25T13:03:08;98868.66;;;9.66;63.95
19576;BME280;41589;51.196;7.074;2023-04-25T13:08:09;98869.72;;;9.50;63.05
19576;BME280;41589;51.196;7.074;2023-04-25T13:13:09;98854.91;;;9.90;66.54
19576;BME280;41589;51.196;7.074;2023-04-25T13:18:10;98857.44;;;10.89;71.19
19576;BME280;41589;51.196;7.074;2023-04-25T13:23:10;98860.81;;;11.72;67.87
19576;BME280;41589;51.196;7.074;2023-04-25T13:28:11;98849.22;;;12.03;66.28
19576;BME280;41589;51.196;7.074;2023-04-25T13:33:11;98841.63;;;12.18;61.73
19576;BME280;41589;51.196;7.074;2023-04-25T13:38:12;98844.59;;;12.38;62.19
19576;BME280;41589;51.196;7.074;2023-04-25T13:43:13;98844.84;;;12.02;56.40
19576;BME280;41589;51.196;7.074;2023-04-25T13:48:14;98852.25;;;11.66;57.04
19576;BME280;41589;51.196;7.074;2023-04-25T13:53:14;98848.72;;;12.04;59.08
19576;BME280;41589;51.196;7.074;2023-04-25T13:58:22;98860.53;;;11.70;57.93
19576;BME280;41589;51.196;7.074;2023-04-25T14:03:22;98862.47;;;11.54;54.79
19576;BME280;41589;51.196;7.074;2023-04-25T14:08:23;98876.06;;;10.86;54.80
19576;BME280;41589;51.196;7.074;2023-04-25T14:13:23;98900.94;;;10.51;58.01
19576;BME280;41589;51.196;7.074;2023-04-25T14:18:24;98909.19;;;9.78;60.82
19576;BME280;41589;51.196;7.074;2023-04-25T14:23:29;98906.91;;;9.33;64.82
19576;BME280;41589;51.196;7.074;2023-04-25T14:28:30;98903.44;;;9.50;66.69
19576;BME280;41589;51.196;7.074;2023-04-25T14:33:34;98894.13;;;9.63;66.88
19576;BME280;41589;51.196;7.074;2023-04-25T14:38:38;98890.25;;;10.09;68.53
19576;BME280;41589;51.196;7.074;2023-04-25T14:43:43;98888.13;;;10.87;71.36
19576;BME280;41589;51.196;7.074;2023-04-25T14:48:48;98880.00;;;11.58;72.28
19576;BME280;41589;51.196;7.074;2023-04-25T14:53:49;98870.28;;;11.93;66.88
19576;BME280;41589;51.196;7.074;2023-04-25T14:58:53;98877.56;;;12.08;65.02
19576;BME280;41589;51.196;7.074;2023-04-25T15:03:53;98872.28;;;11.68;64.99
19576;BME280;41589;51.196;7.074;2023-04-25T15:08:54;98883.31;;;11.48;62.29
19576;BME280;41589;51.196;7.074;2023-04-25T15:13:54;98877.06;;;11.44;61.99
19576;BME280;41589;51.196;7.074;2023-04-25T15:18:55;98873.88;;;11.60;62.90
19576;BME280;41589;51.196;7.074;2023-04-25T15:23:56;98874.66;;;11.61;62.15
19576;BME280;41589;51.196;7.074;2023-04-25T15:28:57;98883.69;;;11.74;60.11
19576;BME280;41589;51.196;7.074;2023-04-25T15:33:58;98880.53;;;11.39;59.81
19576;BME280;41589;51.196;7.074;2023-04-25T15:38:58;98882.88;;;11.40;61.15
19576;BME280;41589;51.196;7.074;2023-04-25T15:43:59;98899.19;;;11.27;61.67
19576;BME280;41589;51.196;7.074;2023-04-25T15:49:03;98898.28;;;11.03;59.20
19576;BME280;41589;51.196;7.074;2023-04-25T15:54:04;98907.50;;;10.48;56.87
19576;BME280;41589;51.196;7.074;2023-04-25T15:59:04;98920.72;;;10.11;57.49
19576;BME280;41589;51.196;7.074;2023-04-25T16:04:05;98905.72;;;10.14;59.07
19576;BME280;41589;51.196;7.074;2023-04-25T16:09:05;98902.53;;;10.61;63.33
19576;BME280;41589;51.196;7.074;2023-04-25T16:14:09;98913.44;;;10.96;62.99
19576;BME280;41589;51.196;7.074;2023-04-25T16:19:10;98903.75;;;10.97;60.08
19576;BME280;41589;51.196;7.074;2023-04-25T16:24:11;98901.84;;;11.12;61.78
19576;BME280;41589;51.196;7.074;2023-04-25T16:29:14;98905.59;;;11.37;60.94
19576;BME280;41589;51.196;7.074;2023-04-25T16:34:16;98912.97;;;11.25;60.49
19576;BME280;41589;51.196;7.074;2023-04-25T16:39:17;98917.03;;;10.69;56.45
19576;BME280;41589;51.196;7.074;2023-04-25T16:44:18;98919.22;;;10.47;56.41
19576;BME280;41589;51.196;7.074;2023-04-25T16:49:18;98913.72;;;10.25;55.91
19576;BME280;41589;51.196;7.074;2023-04-25T16:54:18;98914.00;;;10.18;55.86
19576;BME280;41589;51.196;7.074;2023-04-25T16:59:19;98912.75;;;10.19;55.21
19576;BME280;41589;51.196;7.074;2023-04-25T17:04:22;98906.06;;;10.34;56.00
19576;BME280;41589;51.196;7.074;2023-04-25T17:09:25;98918.72;;;10.21;54.98
19576;BME280;41589;51.196;7.074;2023-04-25T17:14:26;98923.09;;;10.22;55.80
19576;BME280;41589;51.196;7.074;2023-04-25T17:19:29;98918.88;;;10.35;56.30
19576;BME280;41589;51.196;7.074;2023-04-25T17:24:31;98933.75;;;10.36;55.94
19576;BME280;41589;51.196;7.074;2023-04-25T17:29:31;98939.22;;;10.39;56.44
19576;BME280;41589;51.196;7.074;2023-04-25T17:34:34;98945.63;;;10.40;55.67
19576;BME280;41589;51.196;7.074;2023-04-25T17:39:36;98932.03;;;10.38;55.20
19576;BME280;41589;51.196;7.074;2023-04-25T17:44:37;98941.66;;;10.10;53.16
19576;BME280;41589;51.196;7.074;2023-04-25T17:49:38;98962.41;;;10.03;52.77
19576;BME280;41589;51.196;7.074;2023-04-25T17:54:40;98952.53;;;9.90;52.58
19576;BME280;41589;51.196;7.074;2023-04-25T17:59:43;98965.13;;;9.85;51.82
19576;BME280;41589;51.196;7.074;2023-04-25T18:04:49;98968.09;;;9.81;52.27
19576;BME280;41589;51.196;7.074;2023-04-25T18:09:52;98960.13;;;9.80;52.36
19576;BME280;41589;51.196;7.074;2023-04-25T18:14:53;98978.59;;;9.90;53.14
19576;BME280;41589;51.196;7.074;2023-04-25T18:19:53;98961.78;;;9.77;51.87
19576;BME280;41589;51.196;7.074;2023-04-25T18:24:54;98964.22;;;9.66;51.78
19576;BME280;41589;51.196;7.074;2023-04-25T18:30:00;98977.56;;;9.75;52.61
19576;BME280;41589;51.196;7.074;2023-04-25T18:35:01;98991.91;;;9.68;52.25
19576;BME280;41589;51.196;7.074;2023-04-25T18:40:02;99002.72;;;9.78;52.73
19576;BME280;41589;51.196;7.074;2023-04-25T18:45:06;99009.09;;;9.70;52.96
19576;BME280;41589;51.196;7.074;2023-04-25T18:50:07;99024.03;;;9.67;51.90
19576;BME280;41589;51.196;7.074;2023-04-25T18:55:08;99019.56;;;9.47;52.19
19576;BME280;41589;51.196;7.074;2023-04-25T19:00:09;99015.03;;;9.50;52.51
19576;BME280;41589;51.196;7.074;2023-04-25T19:05:10;99024.97;;;9.42;51.99
19576;BME280;41589;51.196;7.074;2023-04-25T19:10:11;99040.44;;;9.24;52.38
19576;BME280;41589;51.196;7.074;2023-04-25T19:15:11;99048.84;;;9.24;52.18
19576;BME280;41589;51.196;7.074;2023-04-25T19:20:12;99061.59;;;9.16;52.06
19576;BME280;41589;51.196;7.074;2023-04-25T19:25:12;99067.78;;;9.11;52.71
19576;BME280;41589;51.196;7.074;2023-04-25T19:30:13;99064.06;;;9.14;52.63
19576;BME280;41589;51.196;7.074;2023-04-25T19:35:16;99053.47;;;8.96;52.62
19576;BME280;41589;51.196;7.074;2023-04-25T19:40:17;99065.25;;;8.91;53.39
19576;BME280;41589;51.196;7.074;2023-04-25T19:45:23;99064.28;;;8.73;53.12
19576;BME280;41589;51.196;7.074;2023-04-25T19:50:30;99071.25;;;8.68;53.18
19576;BME280;41589;51.196;7.074;2023-04-25T19:55:36;99068.69;;;8.61;53.85
19576;BME280;41589;51.196;7.074;2023-04-25T20:00:45;99067.47;;;8.49;53.38
19576;BME280;41589;51.196;7.074;2023-04-25T20:05:46;99073.31;;;8.55;53.85
19576;BME280;41589;51.196;7.074;2023-04-25T20:10:53;99069.38;;;8.65;54.36
19576;BME280;41589;51.196;7.074;2023-04-25T20:15:57;99083.72;;;8.67;54.23
19576;BME280;41589;51.196;7.074;2023-04-25T20:20:57;99092.16;;;8.54;54.09
19576;BME280;41589;51.196;7.074;2023-04-25T20:26:00;99094.50;;;8.30;54.19
19576;BME280;41589;51.196;7.074;2023-04-25T20:31:01;99097.94;;;8.09;54.22
19576;BME280;41589;51.196;7.074;2023-04-25T20:36:03;99104.19;;;8.00;54.12
19576;BME280;41589;51.196;7.074;2023-04-25T20:41:04;99099.84;;;8.12;54.66
19576;BME280;41589;51.196;7.074;2023-04-25T20:46:05;99102.88;;;8.05;54.07
19576;BME280;41589;51.196;7.074;2023-04-25T20:51:05;99101.31;;;8.04;54.39
19576;BME280;41589;51.196;7.074;2023-04-25T20:56:06;99101.16;;;7.95;54.02
19576;BME280;41589;51.196;7.074;2023-04-25T21:01:07;99096.47;;;7.92;53.94
19576;BME280;41589;51.196;7.074;2023-04-25T21:06:08;99101.94;;;7.82;54.10
19576;BME280;41589;51.196;7.074;2023-04-25T21:11:08;99099.34;;;7.88;54.37
19576;BME280;41589;51.196;7.074;2023-04-25T21:16:08;99101.84;;;7.99;54.69
19576;BME280;41589;51.196;7.074;2023-04-25T21:21:09;99110.16;;;8.02;54.77
19576;BME280;41589;51.196;7.074;2023-04-25T21:26:09;99111.59;;;7.94;54.97
19576;BME280;41589;51.196;7.074;2023-04-25T21:31:10;99120.97;;;7.88;55.02
19576;BME280;41589;51.196;7.074;2023-04-25T21:36:10;99118.03;;;7.78;54.93
19576;BME280;41589;51.196;7.074;2023-04-25T21:41:11;99117.13;;;7.69;54.84
19576;BME280;41589;51.196;7.074;2023-04-25T21:46:11;99130.91;;;7.63;55.29
19576;BME280;41589;51.196;7.074;2023-04-25T21:51:12;99126.13;;;7.47;55.05
19576;BME280;41589;51.196;7.074;2023-04-25T21:56:12;99137.97;;;7.39;55.69
19576;BME280;41589;51.196;7.074;2023-04-25T22:01:12;99141.19;;;7.37;55.72
19576;BME280;41589;51.196;7.074;2023-04-25T22:06:14;99142.78;;;7.38;55.89
19576;BME280;41589;51.196;7.074;2023-04-25T22:11:15;99144.09;;;7.34;55.63
19576;BME280;41589;51.196;7.074;2023-04-25T22:16:16;99140.69;;;7.26;55.39
19576;BME280;41589;51.196;7.074;2023-04-25T22:21:17;99134.91;;;7.17;55.74
19576;BME280;41589;51.196;7.074;2023-04-25T22:26:18;99150.75;;;7.23;56.02
19576;BME280;41589;51.196;7.074;2023-04-25T22:31:19;99155.75;;;7.16;56.16
19576;BME280;41589;51.196;7.074;2023-04-25T22:36:19;99167.31;;;7.18;55.98
19576;BME280;41589;51.196;7.074;2023-04-25T22:41:20;99174.47;;;7.03;55.78
19576;BME280;41589;51.196;7.074;2023-04-25T22:46:22;99174.13;;;7.01;56.31
19576;BME280;41589;51.196;7.074;2023-04-25T22:51:23;99175.25;;;7.03;56.01
19576;BME280;41589;51.196;7.074;2023-04-25T22:56:24;99172.63;;;6.96;56.55
19576;BME280;41589;51.196;7.074;2023-04-25T23:01:26;99171.94;;;6.92;56.62
19576;BME280;41589;51.196;7.074;2023-04-25T23:06:28;99180.88;;;6.87;56.99
19576;BME280;41589;51.196;7.074;2023-04-25T23:11:28;99171.75;;;6.83;57.34
19576;BME280;41589;51.196;7.074;2023-04-25T23:16:29;99185.06;;;6.79;57.45
19576;BME280;41589;51.196;7.074;2023-04-25T23:21:29;99182.16;;;6.66;57.13
19576;BME280;41589;51.196;7.074;2023-04-25T23:26:30;99181.97;;;6.57;57.69
19576;BME280;41589;51.196;7.074;2023-04-25T23:31:30;99173.72;;;6.50;58.03
19576;BME280;41589;51.196;7.074;2023-04-25T23:36:31;99190.28;;;6.60;58.14
19576;BME280;41589;51.196;7.074;2023-04-25T23:41:31;99194.63;;;6.61;57.75
19576;BME280;41589;51.196;7.074;2023-04-25T23:46:32;99188.69;;;6.59;58.04
19576;BME280;41589;51.196;7.074;2023-04-25T23:51:33;99197.44;;;6.61;57.88
19576;BME280;41589;51.196;7.074;2023-04-25T23:56:33;99180.47;;;6.52;58.34
